Time;durP1;ratioP1;P1;durP2;ratioP2;P2;SDS_P1;SDS_P2;PMS_P1;PMS_P2;Temp;Humidity;BMP_temperature;BMP_pressure;BME280_temperature;BME280_humidity;BME280_pressure;Samples;Min_cycle;Max_cycle;Signal;HPM_P1;HPM_P2
2023/11/23 00:01:24;;;;;;;15.75;7.47;;;;;;;12.01;61.22;102410.16;5052953;28;20419;-66
2023/11/23 00:03:53;;;;;;;13.80;7.75;;;;;;;12.10;62.48;102417.56;5054124;28;20059;-67
2023/11/23 00:06:21;;;;;;;19.38;7.70;;;;;;;12.38;62.78;102413.28;5062563;28;20056;-66
2023/11/23 00:08:49;;;;;;;15.18;7.90;;;;;;;12.10;62.69;102414.81;5057155;28;20056;-66
2023/11/23 00:11:16;;;;;;;10.85;7.57;;;;;;;12.74;61.44;102411.16;5054298;28;20053;-65
2023/11/23 00:13:43;;;;;;;13.90;8.20;;;;;;;12.76;61.53;102408.94;5055056;28;20792;-66
2023/11/23 00:16:12;;;;;;;14.57;8.30;;;;;;;12.88;61.03;102417.69;5073743;28;20540;-66
2023/11/23 00:18:39;;;;;;;12.95;7.85;;;;;;;13.09;60.80;102405.41;5044011;28;20527;-66
2023/11/23 00:21:06;;;;;;;13.95;7.95;;;;;;;12.83;60.79;102407.47;5055211;28;20068;-66
2023/11/23 00:23:33;;;;;;;14.55;7.88;;;;;;;12.82;60.93;102397.53;5054806;28;20049;-66
2023/11/23 00:26:03;;;;;;;16.35;8.00;;;;;;;12.87;61.47;102386.44;5054906;28;20041;-66
2023/11/23 00:28:30;;;;;;;12.27;8.43;;;;;;;11.77;62.21;102390.63;5053582;28;20049;-66
2023/11/23 00:31:02;;;;;;;15.55;7.97;;;;;;;11.57;65.47;102376.84;5054711;28;20300;-66
2023/11/23 00:33:30;;;;;;;13.93;8.60;;;;;;;11.97;66.26;102381.44;5052455;28;20060;-66
2023/11/23 00:35:57;;;;;;;14.55;7.30;;;;;;;12.40;63.89;102378.75;5054855;28;20045;-65
2023/11/23 00:38:24;;;;;;;15.15;7.60;;;;;;;12.36;63.62;102382.38;5080681;28;20127;-66
2023/11/23 00:40:51;;;;;;;13.13;7.28;;;;;;;12.30;64.76;102381.56;5073038;28;20060;-66
2023/11/23 00:43:20;;;;;;;12.93;8.05;;;;;;;12.30;63.26;102376.03;5072826;28;20048;-65
2023/11/23 00:45:47;;;;;;;15.48;7.65;;;;;;;11.73;64.80;102369.38;5065216;28;20048;-66
2023/11/23 00:48:15;;;;;;;14.20;8.10;;;;;;;12.01;66.15;102366.78;5053250;28;20060;-66
2023/11/23 00:50:42;;;;;;;12.23;7.43;;;;;;;12.41;65.62;102369.31;5053477;28;20060;-66
2023/11/23 00:53:09;;;;;;;12.07;7.03;;;;;;;12.46;64.72;102358.25;5036116;28;20072;-66
2023/11/23 00:55:37;;;;;;;12.57;7.72;;;;;;;12.48;65.30;102353.25;5054452;28;20079;-65
2023/11/23 00:58:04;;;;;;;14.80;7.38;;;;;;;12.31;65.42;102357.50;5065316;28;20049;-69
2023/11/23 01:00:32;;;;;;;18.52;6.75;;;;;;;12.47;64.50;102356.31;5057693;28;20049;-71
2023/11/23 01:03:01;;;;;;;12.60;7.28;;;;;;;12.25;66.22;102347.63;5054543;28;20048;-65
2023/11/23 01:05:28;;;;;;;15.73;7.20;;;;;;;12.01;66.07;102341.13;5054833;28;20405;-66
2023/11/23 01:07:56;;;;;;;14.13;7.10;;;;;;;12.12;65.98;102334.41;5046101;28;20053;-70
2023/11/23 01:10:26;;;;;;;15.10;7.15;;;;;;;12.24;66.23;102324.69;5033772;28;20453;-70
2023/11/23 01:13:20;;;;;;;18.00;7.40;;;;;;;11.81;67.58;102333.75;5047405;28;20559;-69
2023/11/23 01:15:47;;;;;;;12.98;6.63;;;;;;;12.26;67.58;102332.69;5046073;28;20053;-71
2023/11/23 01:18:15;;;;;;;13.35;6.95;;;;;;;11.95;66.42;102336.72;5031068;28;20283;-69
2023/11/23 01:20:42;;;;;;;9.57;6.28;;;;;;;11.77;69.13;102329.06;5049004;28;20049;-70
2023/11/23 01:23:11;;;;;;;15.10;6.32;;;;;;;12.17;67.97;102332.44;5045113;28;20044;-70
2023/11/23 01:25:38;;;;;;;13.38;6.03;;;;;;;12.48;67.72;102337.81;5048756;28;20056;-70
2023/11/23 01:28:05;;;;;;;14.63;6.38;;;;;;;12.34;67.91;102330.13;5040852;28;20048;-71
2023/11/23 01:30:32;;;;;;;10.88;5.72;;;;;;;12.21;67.88;102339.06;5032411;28;20428;-69
2023/11/23 01:33:00;;;;;;;12.48;5.68;;;;;;;12.25;68.94;102339.31;5051965;28;20061;-70
2023/11/23 01:35:27;;;;;;;10.80;5.57;;;;;;;12.29;69.03;102345.94;5051310;28;20512;-70
2023/11/23 01:37:55;;;;;;;12.55;5.50;;;;;;;12.17;69.16;102345.44;5058698;28;20037;-69
2023/11/23 01:40:22;;;;;;;10.40;6.03;;;;;;;12.10;70.31;102344.94;5073588;28;20048;-69
2023/11/23 01:42:49;;;;;;;11.90;6.07;;;;;;;12.33;69.48;102352.53;5073721;28;20079;-70
2023/11/23 01:45:17;;;;;;;11.57;5.85;;;;;;;12.53;69.27;102357.94;5073723;28;20044;-70
2023/11/23 01:47:46;;;;;;;10.82;5.78;;;;;;;12.75;68.31;102352.78;5071606;28;20055;-70
2023/11/23 01:50:14;;;;;;;16.98;5.97;;;;;;;12.20;69.56;102358.69;5070522;28;20056;-70
2023/11/23 01:52:41;;;;;;;11.77;5.93;;;;;;;12.36;70.18;102354.75;5053086;28;20053;-69
2023/11/23 01:55:09;;;;;;;11.60;5.57;;;;;;;12.83;68.59;102348.59;5050858;28;20068;-70
2023/11/23 01:57:40;;;;;;;12.88;5.55;;;;;;;12.82;67.17;102353.28;5051482;28;20058;-70
2023/11/23 02:00:09;;;;;;;10.85;5.57;;;;;;;12.47;69.84;102359.06;5048175;28;20057;-70
2023/11/23 02:02:41;;;;;;;11.85;5.57;;;;;;;12.58;69.37;102357.91;5035500;28;20056;-70
2023/11/23 02:05:09;;;;;;;13.35;5.72;;;;;;;12.69;69.12;102355.91;5052443;28;20049;-70
2023/11/23 02:07:36;;;;;;;10.23;5.95;;;;;;;12.52;69.28;102359.03;5047502;28;20048;-69
2023/11/23 02:10:06;;;;;;;10.68;5.57;;;;;;;12.07;69.65;102354.59;5034850;28;20072;-70
2023/11/23 02:12:33;;;;;;;14.82;6.35;;;;;;;11.72;71.96;102368.56;5049955;28;20358;-69
2023/11/23 02:15:02;;;;;;;12.98;5.47;;;;;;;12.10;72.38;102362.31;5064329;28;20052;-71
2023/11/23 02:17:32;;;;;;;12.23;6.07;;;;;;;12.39;70.91;102359.69;5055012;28;20048;-70
2023/11/23 02:19:59;;;;;;;9.07;5.10;;;;;;;12.51;70.20;102354.63;5046253;28;20081;-70
2023/11/23 02:22:26;;;;;;;11.68;5.28;;;;;;;12.09;70.41;102357.09;5031222;28;20409;-70
2023/11/23 02:24:54;;;;;;;8.93;5.50;;;;;;;12.01;71.39;102364.00;5033384;28;20542;-69
2023/11/23 02:27:21;;;;;;;13.05;5.57;;;;;;;12.03;71.64;102369.28;5032878;28;20164;-70
2023/11/23 02:29:48;;;;;;;10.45;5.80;;;;;;;12.36;71.12;102369.34;5031665;28;20504;-69
2023/11/23 02:32:16;;;;;;;11.38;5.50;;;;;;;12.11;71.00;102368.69;5057111;28;20063;-69
2023/11/23 02:34:44;;;;;;;13.88;5.97;;;;;;;11.87;72.99;102356.63;5059771;28;20057;-69
2023/11/23 02:37:11;;;;;;;13.38;5.70;;;;;;;12.31;71.45;102363.03;5052384;28;20041;-69
2023/11/23 02:39:42;;;;;;;15.32;5.65;;;;;;;12.08;71.24;102372.03;5071441;28;20049;-69
2023/11/23 02:42:09;;;;;;;10.93;5.70;;;;;;;11.12;74.04;102372.22;5071941;28;20076;-70
2023/11/23 02:44:36;;;;;;;15.95;6.32;;;;;;;11.56;76.17;102366.09;5054852;28;20052;-69
2023/11/23 02:47:04;;;;;;;9.65;5.43;;;;;;;12.23;73.19;102349.81;5071337;28;20048;-69
2023/11/23 02:49:31;;;;;;;9.80;5.40;;;;;;;12.42;71.48;102362.72;5072932;28;20055;-71
2023/11/23 02:51:58;;;;;;;12.30;5.32;;;;;;;12.51;71.30;102373.16;5072996;28;20055;-70
2023/11/23 02:54:25;;;;;;;14.95;5.47;;;;;;;12.51;70.90;102360.16;5054791;28;20053;-70
2023/11/23 02:56:53;;;;;;;12.18;5.00;;;;;;;11.84;72.71;102360.78;5053762;28;20056;-70
2023/11/23 02:59:20;;;;;;;12.63;5.60;;;;;;;12.48;71.87;102348.84;5052024;28;20060;-69
2023/11/23 03:01:47;;;;;;;11.60;5.47;;;;;;;12.64;70.41;102345.69;5053114;28;20053;-69
2023/11/23 03:04:14;;;;;;;13.70;5.53;;;;;;;12.08;71.37;102349.91;5052595;28;20056;-70
2023/11/23 03:06:42;;;;;;;11.07;5.18;;;;;;;12.25;72.58;102348.44;5059370;28;21485;-69
2023/11/23 03:09:09;;;;;;;12.57;4.90;;;;;;;12.51;71.47;102353.81;5051135;28;20064;-71
2023/11/23 03:11:36;;;;;;;11.70;5.60;;;;;;;12.59;71.10;102344.91;5051561;28;20440;-70
2023/11/23 03:14:04;;;;;;;9.35;4.93;;;;;;;12.72;70.66;102352.53;5049973;28;20071;-69
2023/11/23 03:16:34;;;;;;;15.38;5.25;;;;;;;12.64;70.88;102353.16;5052337;28;20052;-70
2023/11/23 03:19:01;;;;;;;9.27;5.18;;;;;;;12.67;70.62;102355.34;5050257;28;20049;-70
2023/11/23 03:21:28;;;;;;;9.85;5.03;;;;;;;12.85;70.59;102349.94;5050330;28;20049;-70
2023/11/23 03:23:56;;;;;;;11.50;4.93;;;;;;;12.75;70.57;102349.19;5051800;28;20041;-70
2023/11/23 03:26:24;;;;;;;9.90;5.47;;;;;;;11.81;71.85;102361.34;5050376;28;20052;-70
2023/11/23 03:28:51;;;;;;;18.50;5.82;;;;;;;11.31;75.80;102365.03;5051549;28;20041;-69
2023/11/23 03:31:18;;;;;;;12.73;5.90;;;;;;;11.52;75.02;102363.06;5056655;28;20056;-69
2023/11/23 03:33:46;;;;;;;10.52;5.15;;;;;;;10.64;77.55;102367.25;5068008;28;20044;-69
2023/11/23 03:36:13;;;;;;;9.48;5.07;;;;;;;11.45;78.91;102361.69;5055599;28;20140;-69
2023/11/23 03:38:41;;;;;;;11.65;5.00;;;;;;;11.82;74.20;102362.19;5067820;28;20060;-71
2023/11/23 03:41:09;;;;;;;8.35;4.93;;;;;;;12.31;75.19;102363.03;5075467;28;20078;-70
2023/11/23 03:43:36;;;;;;;11.57;5.28;;;;;;;12.38;73.68;102361.63;5073477;28;20061;-69
2023/11/23 03:46:03;;;;;;;10.07;5.18;;;;;;;12.45;73.37;102361.28;5075783;28;20055;-68
2023/11/23 03:48:30;;;;;;;11.45;5.65;;;;;;;12.19;73.97;102363.38;5038044;28;20051;-68
2023/11/23 03:50:58;;;;;;;10.30;5.20;;;;;;;12.43;73.15;102366.28;5034076;28;20045;-69
2023/11/23 03:53:25;;;;;;;10.00;5.03;;;;;;;12.40;72.38;102361.31;5034876;28;20234;-69
2023/11/23 03:55:53;;;;;;;10.90;5.28;;;;;;;12.17;72.81;102350.94;5035031;28;20164;-69
2023/11/23 03:58:20;;;;;;;11.15;5.32;;;;;;;12.40;74.39;102366.84;5045920;28;20045;-69
2023/11/23 04:00:48;;;;;;;12.63;5.07;;;;;;;12.68;72.49;102355.06;5053741;28;20045;-70
2023/11/23 04:03:15;;;;;;;9.05;5.22;;;;;;;12.56;72.93;102360.13;5054779;28;20053;-70
2023/11/23 04:05:43;;;;;;;13.85;4.88;;;;;;;12.25;73.67;102353.13;5070083;28;20053;-70
2023/11/23 04:08:10;;;;;;;13.82;5.32;;;;;;;12.47;73.64;102356.31;5053938;28;20053;-68
2023/11/23 04:10:39;;;;;;;12.70;5.50;;;;;;;12.48;73.95;102355.22;5054645;28;20040;-71
2023/11/23 04:13:06;;;;;;;9.45;5.35;;;;;;;12.56;73.34;102334.41;5054832;28;20049;-70
2023/11/23 04:15:34;;;;;;;8.90;4.95;;;;;;;12.80;72.36;102340.84;5052912;28;20045;-68
2023/11/23 04:18:01;;;;;;;11.02;5.18;;;;;;;12.63;72.94;102341.28;5048824;28;20073;-70
2023/11/23 04:20:29;;;;;;;14.25;5.05;;;;;;;12.22;74.51;102343.47;5033058;28;20046;-68
2023/11/23 04:22:59;;;;;;;11.20;5.25;;;;;;;12.74;73.52;102334.56;5052067;28;20467;-69
2023/11/23 04:25:27;;;;;;;10.15;5.00;;;;;;;12.74;72.05;102329.03;5053053;28;20053;-70
2023/11/23 04:27:54;;;;;;;14.02;5.20;;;;;;;12.83;72.50;102338.34;5054178;28;20041;-69
2023/11/23 04:30:21;;;;;;;11.27;5.25;;;;;;;12.98;72.15;102337.41;5053857;28;20060;-69
2023/11/23 04:32:48;;;;;;;13.43;5.22;;;;;;;12.96;71.83;102337.69;5053557;28;20049;-69
2023/11/23 04:35:16;;;;;;;10.55;5.45;;;;;;;12.46;72.48;102357.44;5054157;28;20411;-70
2023/11/23 04:37:45;;;;;;;9.63;5.05;;;;;;;12.70;73.56;102347.31;5052429;28;20053;-69
2023/11/23 04:40:12;;;;;;;10.90;5.40;;;;;;;12.36;73.90;102351.97;5054452;28;20049;-69
2023/11/23 04:42:40;;;;;;;10.15;4.75;;;;;;;12.26;75.53;102344.56;5054203;28;20353;-69
2023/11/23 04:45:08;;;;;;;11.85;5.28;;;;;;;11.71;76.28;102342.06;5052995;28;20056;-70
2023/11/23 04:47:35;;;;;;;13.77;5.18;;;;;;;11.38;79.15;102350.13;5053331;28;20053;-70
2023/11/23 04:50:03;;;;;;;12.63;5.30;;;;;;;11.38;79.61;102349.00;5054443;28;20056;-69
2023/11/23 04:52:30;;;;;;;18.50;5.78;;;;;;;12.01;78.41;102346.63;5036335;28;20060;-70
2023/11/23 04:54:57;;;;;;;13.65;4.55;;;;;;;12.58;76.30;102337.72;5048804;28;20056;-69
2023/11/23 04:57:25;;;;;;;12.20;5.38;;;;;;;13.13;73.73;102331.75;5042984;28;20542;-70
2023/11/23 04:59:52;;;;;;;10.98;5.22;;;;;;;12.93;73.25;102334.69;5052092;28;20041;-69
2023/11/23 05:02:20;;;;;;;10.57;4.60;;;;;;;12.89;73.69;102330.84;5051824;28;20044;-70
2023/11/23 05:04:47;;;;;;;11.38;5.03;;;;;;;12.79;74.39;102337.28;5019234;28;20064;-70
2023/11/23 05:07:14;;;;;;;10.32;4.93;;;;;;;12.99;73.50;102339.06;5052055;28;20056;-69
2023/11/23 05:09:42;;;;;;;11.57;5.07;;;;;;;11.85;76.20;102354.16;5052359;28;20045;-69
2023/11/23 05:12:09;;;;;;;9.50;4.65;;;;;;;12.09;77.95;102359.84;5052566;28;20479;-70
2023/11/23 05:14:36;;;;;;;12.65;5.10;;;;;;;12.13;78.94;102350.69;5059801;28;20048;-70
2023/11/23 05:17:03;;;;;;;13.85;4.95;;;;;;;11.56;78.81;102358.63;5071744;28;20053;-69
2023/11/23 05:19:31;;;;;;;12.85;5.25;;;;;;;11.88;81.25;102361.03;5073848;28;20048;-70
2023/11/23 05:22:09;;;;;;;11.43;4.55;;;;;;;12.33;77.55;102355.28;5072515;28;20048;-70
2023/11/23 05:24:36;;;;;;;9.20;4.35;;;;;;;12.61;77.76;102346.25;5074066;28;20049;-69
2023/11/23 05:27:04;;;;;;;13.85;4.57;;;;;;;12.11;78.70;102339.13;5071965;28;20052;-70
2023/11/23 05:29:31;;;;;;;12.00;5.07;;;;;;;12.31;78.58;102343.69;5073529;28;20055;-70
2023/11/23 05:31:58;;;;;;;10.35;4.47;;;;;;;12.28;77.65;102349.78;5063046;28;20044;-69
2023/11/23 05:34:25;;;;;;;10.02;5.00;;;;;;;12.41;79.15;102343.66;5053432;28;20056;-69
2023/11/23 05:36:53;;;;;;;10.88;4.75;;;;;;;12.89;77.06;102342.72;5051598;28;20056;-70
2023/11/23 05:39:20;;;;;;;10.77;5.30;;;;;;;12.60;77.42;102347.38;5086879;28;20040;-69
2023/11/23 05:41:47;;;;;;;12.32;5.18;;;;;;;12.20;79.83;102342.13;5072971;28;20447;-70
2023/11/23 05:44:15;;;;;;;11.60;4.60;;;;;;;12.88;78.21;102343.84;5072026;28;20504;-70
2023/11/23 05:46:43;;;;;;;13.02;5.22;;;;;;;12.77;76.45;102336.75;5073432;28;20060;-70
2023/11/23 05:49:11;;;;;;;14.88;5.22;;;;;;;12.21;80.02;102341.84;5073430;28;20044;-71
2023/11/23 05:51:39;;;;;;;14.38;5.72;;;;;;;12.32;81.31;102348.13;5072620;28;20068;-70
2023/11/23 05:54:06;;;;;;;12.35;4.93;;;;;;;12.93;78.77;102329.16;5035869;28;20053;-69
2023/11/23 05:56:33;;;;;;;17.67;5.53;;;;;;;13.16;77.12;102336.72;5052766;28;20060;-69
2023/11/23 05:59:01;;;;;;;15.98;5.10;;;;;;;13.16;76.28;102323.69;5068985;28;20044;-70
2023/11/23 06:01:28;;;;;;;14.40;5.60;;;;;;;13.20;75.13;102326.69;5053554;28;20053;-70
2023/11/23 06:03:56;;;;;;;11.43;5.28;;;;;;;12.25;79.97;102336.56;5053845;28;20048;-69
2023/11/23 06:06:23;;;;;;;11.70;5.10;;;;;;;12.77;79.56;102319.31;5061221;28;20059;-70
2023/11/23 06:08:51;;;;;;;13.15;5.50;;;;;;;13.17;77.38;102313.44;5056351;28;20045;-70
2023/11/23 06:11:18;;;;;;;11.07;4.97;;;;;;;13.26;77.03;102314.47;5032010;28;20064;-70
2023/11/23 06:13:46;;;;;;;12.05;5.13;;;;;;;13.34;76.36;102305.53;5033966;28;20136;-70
2023/11/23 06:16:14;;;;;;;12.20;4.63;;;;;;;13.32;76.50;102313.28;5072162;28;20064;-70
2023/11/23 06:18:41;;;;;;;16.55;5.60;;;;;;;12.68;79.77;102313.59;5072597;28;20047;-69
2023/11/23 06:21:09;;;;;;;12.15;4.97;;;;;;;12.56;79.62;102312.31;5070685;28;20116;-70
2023/11/23 06:23:36;;;;;;;10.90;5.07;;;;;;;12.01;82.06;102317.06;5068775;28;20051;-70
2023/11/23 06:26:03;;;;;;;14.77;5.60;;;;;;;11.71;85.40;102317.22;5068043;28;20052;-70
2023/11/23 06:28:31;;;;;;;13.35;5.30;;;;;;;11.69;86.83;102315.84;5052437;28;20039;-70
2023/11/23 06:30:59;;;;;;;12.63;5.50;;;;;;;11.83;87.45;102311.38;5053023;28;20412;-71
2023/11/23 06:33:27;;;;;;;11.38;5.32;;;;;;;11.85;86.25;102318.28;5071288;28;20427;-71
2023/11/23 06:35:57;;;;;;;15.75;5.93;;;;;;;11.77;87.49;102320.78;5053955;28;20048;-70
2023/11/23 06:38:24;;;;;;;12.35;5.88;;;;;;;11.64;89.15;102322.22;5072126;28;20407;-70
2023/11/23 06:40:52;;;;;;;11.63;5.40;;;;;;;11.91;88.16;102330.09;5072318;28;20055;-70
2023/11/23 06:43:20;;;;;;;14.65;4.97;;;;;;;12.35;86.28;102323.50;5072392;28;20057;-71
2023/11/23 06:45:47;;;;;;;13.30;5.55;;;;;;;12.11;86.27;102322.56;5073006;28;20044;-70
2023/11/23 06:48:14;;;;;;;11.02;5.45;;;;;;;12.12;87.86;102334.41;5072692;28;20071;-71
2023/11/23 06:50:44;;;;;;;13.93;6.15;;;;;;;12.13;87.09;102333.31;5071504;28;20487;-70
2023/11/23 06:53:11;;;;;;;14.35;6.32;;;;;;;12.12;88.56;102334.41;5056819;28;20702;-69
2023/11/23 06:55:38;;;;;;;11.80;5.18;;;;;;;12.25;87.88;102342.91;5051219;28;20053;-70
2023/11/23 06:58:05;;;;;;;11.52;5.63;;;;;;;12.72;85.26;102330.44;5034003;28;20052;-70
2023/11/23 07:00:35;;;;;;;11.53;5.80;;;;;;;12.91;84.75;102331.38;5038032;28;20045;-71
2023/11/23 07:03:03;;;;;;;13.40;5.50;;;;;;;13.02;82.63;102333.78;5040791;28;20674;-71
2023/11/23 07:05:30;;;;;;;12.15;5.57;;;;;;;12.98;84.17;102338.22;5033902;28;20057;-70
2023/11/23 07:07:57;;;;;;;13.38;5.68;;;;;;;12.83;84.06;102335.56;5059370;28;20045;-65
2023/11/23 07:10:25;;;;;;;10.70;5.32;;;;;;;12.93;84.86;102341.03;5036026;28;20504;-66
2023/11/23 07:12:52;;;;;;;13.82;5.25;;;;;;;12.92;84.86;102339.38;5037301;28;20056;-66
2023/11/23 07:15:23;;;;;;;14.27;5.82;;;;;;;13.02;84.26;102338.50;5054010;28;20331;-65
2023/11/23 07:17:51;;;;;;;16.45;6.15;;;;;;;12.69;85.72;102328.25;5050764;28;20046;-65
2023/11/23 07:20:18;;;;;;;13.02;5.60;;;;;;;12.91;84.55;102329.44;5035957;28;20053;-66
2023/11/23 07:22:45;;;;;;;11.15;5.90;;;;;;;13.05;84.57;102330.44;5050930;28;20061;-67
2023/11/23 07:25:14;;;;;;;12.27;5.93;;;;;;;12.92;84.67;102331.06;5036102;28;20524;-66
2023/11/23 07:27:41;;;;;;;11.60;5.93;;;;;;;13.34;83.24;102322.97;5035854;28;20049;-66
2023/11/23 07:30:09;;;;;;;12.27;6.65;;;;;;;13.54;81.64;102321.91;5036162;28;20049;-67
2023/11/23 07:32:36;;;;;;;12.93;5.95;;;;;;;13.29;82.77;102319.41;5067868;28;20495;-66
2023/11/23 07:35:08;;;;;;;17.85;8.63;;;;;;;13.39;82.55;102322.06;5076437;28;20048;-67
2023/11/23 07:37:35;;;;;;;12.70;7.40;;;;;;;13.63;81.16;102324.88;5075330;28;20052;-65
2023/11/23 07:40:12;;;;;;;13.25;6.13;;;;;;;13.42;81.07;102322.31;5076044;28;20047;-65
2023/11/23 07:42:42;;;;;;;9.40;5.55;;;;;;;13.20;82.55;102326.69;5074542;28;20060;-66
2023/11/23 07:45:09;;;;;;;11.40;6.00;;;;;;;13.06;83.40;102321.03;5076116;28;20417;-65
2023/11/23 07:47:39;;;;;;;13.18;5.60;;;;;;;13.43;82.71;102314.84;5073557;28;20056;-66
2023/11/23 07:50:07;;;;;;;7.93;5.07;;;;;;;13.74;80.66;102315.31;5054983;28;20049;-66
2023/11/23 07:52:34;;;;;;;13.68;5.45;;;;;;;13.89;79.67;102315.13;5055987;28;20049;-66
2023/11/23 07:55:02;;;;;;;13.00;5.88;;;;;;;13.76;79.74;102321.38;5056547;28;20056;-66
2023/11/23 07:57:29;;;;;;;9.02;5.20;;;;;;;13.39;81.90;102324.84;5060957;28;20045;-66
2023/11/23 07:59:57;;;;;;;11.35;5.10;;;;;;;13.65;81.34;102333.69;5063342;28;20045;-66
2023/11/23 08:02:25;;;;;;;13.30;6.32;;;;;;;13.76;80.68;102340.75;5038460;28;20492;-66
2023/11/23 08:04:52;;;;;;;17.67;5.72;;;;;;;13.05;82.89;102340.69;5054674;28;20448;-66
2023/11/23 08:07:20;;;;;;;12.63;5.15;;;;;;;12.79;86.03;102333.69;5068351;28;20423;-66
2023/11/23 08:09:48;;;;;;;15.35;5.82;;;;;;;13.19;85.85;102327.81;5071779;28;20068;-66
2023/11/23 08:12:15;;;;;;;12.75;5.80;;;;;;;13.46;83.39;102330.84;5038389;28;20056;-66
2023/11/23 08:14:43;;;;;;;12.18;4.80;;;;;;;13.73;81.85;102324.72;5053841;28;20049;-66
2023/11/23 08:17:11;;;;;;;12.65;5.75;;;;;;;13.75;81.15;102320.56;5051002;28;20061;-70
2023/11/23 08:19:39;;;;;;;8.90;5.13;;;;;;;13.75;81.83;102328.03;5033799;28;20058;-69
2023/11/23 08:22:08;;;;;;;16.52;6.10;;;;;;;13.44;82.40;102330.34;5050221;28;20057;-66
2023/11/23 08:24:35;;;;;;;16.70;5.47;;;;;;;13.10;85.55;102338.69;5034838;28;20049;-66
2023/11/23 08:27:03;;;;;;;14.90;6.03;;;;;;;13.24;85.78;102347.16;5033955;28;20060;-66
2023/11/23 08:29:30;;;;;;;12.27;5.43;;;;;;;13.52;84.22;102343.53;5034705;28;20531;-65
2023/11/23 08:31:58;;;;;;;12.95;6.03;;;;;;;12.91;86.26;102351.56;5056421;28;20048;-66
2023/11/23 08:34:25;;;;;;;15.25;6.05;;;;;;;13.21;86.90;102347.72;5055510;28;20064;-66
2023/11/23 08:36:52;;;;;;;16.33;6.00;;;;;;;13.52;85.65;102349.91;5054866;28;20056;-66
2023/11/23 08:39:20;;;;;;;11.18;5.82;;;;;;;13.40;85.73;102349.47;5072749;28;20052;-65
2023/11/23 08:41:47;;;;;;;12.10;6.15;;;;;;;13.42;86.66;102351.94;5054278;28;20056;-65
2023/11/23 08:44:15;;;;;;;10.73;6.00;;;;;;;13.99;83.34;102348.22;5051901;28;20049;-66
2023/11/23 08:46:43;;;;;;;10.40;5.70;;;;;;;13.45;84.52;102352.19;5039828;28;20048;-66
2023/11/23 08:49:10;;;;;;;11.07;5.43;;;;;;;12.99;87.80;102359.22;5038047;28;20053;-66
2023/11/23 08:51:39;;;;;;;13.57;5.97;;;;;;;12.87;90.92;102352.41;5035800;28;20060;-67
2023/11/23 08:54:08;;;;;;;21.35;7.47;;;;;;;12.73;91.78;102352.25;5053822;28;20053;-69
2023/11/23 08:56:36;;;;;;;17.52;6.82;;;;;;;12.84;92.07;102348.31;5054729;28;20151;-69
2023/11/23 08:59:03;;;;;;;12.82;5.78;;;;;;;13.34;90.20;102353.41;5066284;28;20048;-70
2023/11/23 09:01:31;;;;;;;12.07;5.78;;;;;;;13.25;89.19;102348.81;5053175;28;20053;-69
2023/11/23 09:03:58;;;;;;;13.18;6.25;;;;;;;13.43;89.25;102350.81;5054674;28;20049;-69
2023/11/23 09:06:26;;;;;;;15.07;7.68;;;;;;;13.74;87.81;102349.34;5053647;28;20048;-67
2023/11/23 09:08:54;;;;;;;14.13;8.90;;;;;;;13.76;86.88;102352.66;5052338;28;20052;-69
2023/11/23 09:11:22;;;;;;;16.27;7.65;;;;;;;14.02;86.20;102344.84;5053407;28;20064;-69
2023/11/23 09:13:49;;;;;;;13.63;7.25;;;;;;;13.92;86.01;102351.38;5052878;28;20049;-67
2023/11/23 09:16:25;;;;;;;10.95;6.55;;;;;;;14.21;85.19;102351.28;5024735;28;20045;-66
2023/11/23 09:18:53;;;;;;;;;;;;;;;14.34;84.14;102353.31;5037002;28;20064;-63
2023/11/23 09:21:21;;;;;;;14.18;5.60;;;;;;;14.32;83.59;102353.63;5052307;28;19921;-66
2023/11/23 09:23:53;;;;;;;12.68;7.20;;;;;;;14.02;85.59;102362.31;5052399;28;20056;-65
2023/11/23 09:26:28;;;;;;;14.15;6.50;;;;;;;13.87;86.40;102368.06;5053260;28;20041;-64
2023/11/23 09:28:55;;;;;;;16.58;6.70;;;;;;;14.20;86.26;102372.63;5051931;28;20056;-63
2023/11/23 09:31:34;;;;;;;11.27;6.82;;;;;;;14.38;84.47;102377.38;5057009;28;20056;-67
2023/11/23 09:34:08;;;;;;;16.45;7.65;;;;;;;13.87;87.02;102375.53;5043155;28;20056;-65
2023/11/23 09:36:36;;;;;;;13.27;6.97;;;;;;;13.95;87.05;102372.09;5034982;28;20045;-64
2023/11/23 09:39:04;;;;;;;17.50;7.60;;;;;;;13.58;88.97;102376.41;5051069;28;20064;-65
2023/11/23 09:41:34;;;;;;;11.82;6.80;;;;;;;13.53;89.90;102378.38;5059347;28;20385;-66
2023/11/23 09:44:02;;;;;;;14.13;7.53;;;;;;;13.82;89.31;102375.59;5052280;28;20064;-67
2023/11/23 09:46:29;;;;;;;12.60;6.90;;;;;;;13.03;92.27;102376.94;5051955;28;20045;-66
2023/11/23 09:48:57;;;;;;;13.10;5.82;;;;;;;13.18;93.54;102376.78;5018424;28;20053;-65
2023/11/23 09:51:24;;;;;;;14.88;6.63;;;;;;;13.58;91.88;102384.69;5054136;28;20052;-64
2023/11/23 09:53:54;;;;;;;12.73;8.07;;;;;;;13.74;91.38;102376.25;5053152;28;20059;-64
2023/11/23 09:56:23;;;;;;;9.55;5.63;;;;;;;13.27;92.57;102368.69;5051225;28;20049;-66
2023/11/23 09:58:50;;;;;;;9.43;5.40;;;;;;;13.31;92.99;102370.59;5034884;28;20049;-66
2023/11/23 10:01:18;;;;;;;11.13;5.20;;;;;;;13.06;95.58;102362.53;5051709;28;20045;-64
2023/11/23 10:03:48;;;;;;;7.75;5.18;;;;;;;13.15;95.20;102359.94;5035410;28;20055;-64
2023/11/23 10:06:16;;;;;;;9.13;4.65;;;;;;;13.21;93.82;102362.41;5026397;28;20048;-66
2023/11/23 10:08:44;;;;;;;9.05;4.82;;;;;;;12.82;95.60;102364.34;5055921;28;20056;-65
2023/11/23 10:11:13;;;;;;;9.70;5.00;;;;;;;13.26;96.08;102355.97;5052203;28;20052;-65
2023/11/23 10:13:40;;;;;;;10.35;4.57;;;;;;;13.58;92.87;102357.00;5051266;28;20052;-64
2023/11/23 10:16:11;;;;;;;11.63;5.47;;;;;;;13.73;90.31;102353.25;5032668;28;20405;-66
2023/11/23 10:18:41;;;;;;;7.45;4.75;;;;;;;13.23;92.98;102351.84;5039192;28;20053;-68
2023/11/23 10:21:11;;;;;;;8.73;5.25;;;;;;;13.55;93.14;102354.00;5042475;28;20053;-64
2023/11/23 10:23:40;;;;;;;7.13;4.50;;;;;;;13.79;89.90;102354.03;5050048;28;20053;-64
2023/11/23 10:26:31;;;;;;;13.07;5.20;;;;;;;13.63;91.25;102355.31;5051446;28;20052;-66
2023/11/23 10:28:59;;;;;;;17.50;5.28;;;;;;;13.88;89.96;102347.53;5045847;28;20068;-73
2023/11/23 10:31:26;;;;;;;8.85;4.80;;;;;;;14.34;86.99;102345.00;5053595;28;20053;-77
2023/11/23 10:33:53;;;;;;;9.68;5.80;;;;;;;13.57;88.34;102341.53;5042262;28;20405;-78
2023/11/23 10:36:23;;;;;;;13.15;5.90;;;;;;;13.47;90.51;102333.34;5039540;28;20053;-74
2023/11/23 10:38:55;;;;;;;15.10;5.82;;;;;;;14.10;88.77;102322.88;5021023;28;20580;-73
2023/11/23 10:41:22;;;;;;;11.88;4.78;;;;;;;14.37;86.90;102316.69;5032615;28;20061;-70
2023/11/23 10:43:50;;;;;;;11.68;5.28;;;;;;;14.17;85.81;102311.41;5039922;28;20053;-71
2023/11/23 10:46:20;;;;;;;13.45;4.82;;;;;;;14.21;87.69;102315.25;5042582;28;20053;-70
2023/11/23 10:48:49;;;;;;;10.88;4.63;;;;;;;14.54;85.33;102298.38;5052501;28;20125;-73
2023/11/23 10:51:18;;;;;;;10.68;5.28;;;;;;;14.35;86.40;102296.75;5038587;28;20056;-67
2023/11/23 10:53:45;;;;;;;11.32;4.65;;;;;;;14.75;84.33;102289.75;5031675;28;20045;-68
2023/11/23 10:56:24;;;;;;;8.95;4.80;;;;;;;14.54;84.45;102278.13;5050856;28;20053;-68
2023/11/23 10:58:54;;;;;;;8.35;4.75;;;;;;;14.78;84.09;102278.03;5032158;28;20057;-69
2023/11/23 11:01:23;;;;;;;12.20;4.65;;;;;;;14.38;84.24;102274.00;5055642;28;20053;-70
2023/11/23 11:03:51;;;;;;;13.18;5.60;;;;;;;13.44;88.14;102275.78;5047807;28;20045;-73
2023/11/23 11:06:21;;;;;;;10.48;5.78;;;;;;;13.22;92.91;102261.66;5057322;28;20667;-73
2023/11/23 11:08:49;;;;;;;;;;;;;;;13.10;94.14;102261.25;5048763;28;20064;-74
2023/11/23 11:11:21;;;;;;;14.25;7.75;;;;;;;13.03;93.80;102260.75;5053528;28;20008;-74
2023/11/23 11:14:03;;;;;;;16.95;7.85;;;;;;;12.84;95.56;102259.81;5041375;28;20051;-75
2023/11/23 11:16:39;;;;;;;17.88;7.35;;;;;;;12.89;96.59;102257.00;5030740;28;20053;-68
2023/11/23 11:19:07;;;;;;;14.27;6.35;;;;;;;13.91;92.17;102244.47;5027500;28;20068;-73
2023/11/23 11:21:43;;;;;;;12.18;5.43;;;;;;;13.73;90.19;102236.13;5033823;28;20045;-76
2023/11/23 11:24:18;;;;;;;13.00;5.70;;;;;;;14.26;88.50;102221.75;5032384;28;20073;-68